createdAt,value
2017-03-21T00:00:25.614Z,19.83
2017-03-21T00:01:06.187Z,19.88
2017-03-21T00:01:46.765Z,19.87
2017-03-21T00:02:27.343Z,19.95
2017-03-21T00:03:07.926Z,19.88
2017-03-21T00:03:48.512Z,19.88
2017-03-21T00:04:29.095Z,19.94
2017-03-21T00:05:16.503Z,19.88
2017-03-21T00:05:57.076Z,19.91
2017-03-21T00:06:37.657Z,19.92
2017-03-21T00:07:18.221Z,19.94
2017-03-21T00:09:10.835Z,19.87
2017-03-21T00:09:51.408Z,19.92
2017-03-21T00:10:31.996Z,19.91
2017-03-21T00:11:12.573Z,19.88
2017-03-21T00:11:53.152Z,19.95
2017-03-21T00:12:33.724Z,19.94
2017-03-21T00:13:14.312Z,19.95
2017-03-21T00:13:54.886Z,19.98
2017-03-21T00:14:35.461Z,19.96
2017-03-21T00:15:16.046Z,19.94
2017-03-21T00:15:56.624Z,19.95
2017-03-21T00:16:37.206Z,19.83
2017-03-21T00:17:17.783Z,19.94
2017-03-21T00:17:58.365Z,19.96
2017-03-21T00:18:38.935Z,19.95
2017-03-21T00:19:19.527Z,19.88
2017-03-21T00:20:00.123Z,19.96
2017-03-21T00:20:40.707Z,19.98
2017-03-21T00:21:21.287Z,19.91
2017-03-21T00:22:01.867Z,19.91
2017-03-21T00:22:42.462Z,19.92
2017-03-21T00:23:23.042Z,19.94
2017-03-21T00:24:03.626Z,19.95
2017-03-21T00:24:44.210Z,19.87
2017-03-21T00:25:24.789Z,19.96
2017-03-21T00:26:05.375Z,19.95
2017-03-21T00:26:45.948Z,19.98
2017-03-21T00:27:26.543Z,19.88
2017-03-21T00:28:07.121Z,19.91
2017-03-21T00:28:47.708Z,19.95
2017-03-21T00:29:28.278Z,19.91
2017-03-21T00:30:08.865Z,19.95
2017-03-21T00:30:49.460Z,19.87
2017-03-21T00:31:30.030Z,19.94
2017-03-21T00:32:10.631Z,19.87
2017-03-21T00:32:51.215Z,19.83
2017-03-21T00:33:31.806Z,19.91
2017-03-21T00:34:12.387Z,19.92
2017-03-21T00:34:52.958Z,19.84
2017-03-21T00:35:33.544Z,19.88
2017-03-21T00:36:14.115Z,19.81
2017-03-21T00:36:54.703Z,19.87
2017-03-21T00:37:35.297Z,19.84
2017-03-21T00:38:15.859Z,19.8
2017-03-21T00:38:56.441Z,19.83
2017-03-21T00:39:37.022Z,19.88
2017-03-21T00:40:17.605Z,19.94
2017-03-21T00:40:58.183Z,19.91
2017-03-21T00:41:38.764Z,19.95
2017-03-21T00:42:19.345Z,19.91
2017-03-21T00:42:59.924Z,19.98
2017-03-21T00:43:40.508Z,19.94
2017-03-21T00:45:17.868Z,19.87
2017-03-21T00:45:58.451Z,19.94
2017-03-21T00:46:53.765Z,19.91
2017-03-21T00:47:34.340Z,19.95
2017-03-21T00:48:14.920Z,19.81
2017-03-21T00:48:55.502Z,19.94
2017-03-21T00:49:36.081Z,19.94
2017-03-21T00:50:16.659Z,19.92
2017-03-21T00:50:57.233Z,19.91
2017-03-21T00:51:37.815Z,19.92
2017-03-21T00:52:18.395Z,19.88
2017-03-21T00:52:58.964Z,19.92
2017-03-21T00:53:39.531Z,19.91
2017-03-21T00:54:20.105Z,19.94
2017-03-21T00:55:00.682Z,19.92
2017-03-21T00:55:41.260Z,19.92
2017-03-21T00:56:21.837Z,19.88
2017-03-21T00:57:02.417Z,19.92
2017-03-21T00:57:43.002Z,19.96
2017-03-21T00:58:23.570Z,19.96
2017-03-21T00:59:10.972Z,19.94
2017-03-21T00:59:51.552Z,19.94
2017-03-21T01:00:32.124Z,19.81
2017-03-21T01:01:12.718Z,19.86
2017-03-21T01:01:53.299Z,19.99
2017-03-21T01:02:33.884Z,19.94
2017-03-21T01:03:14.463Z,20.02
2017-03-21T01:03:55.046Z,19.91
2017-03-21T01:04:35.629Z,19.95
2017-03-21T01:05:16.208Z,19.83
2017-03-21T01:05:56.793Z,19.94
2017-03-21T01:06:37.362Z,19.92
2017-03-21T01:07:17.948Z,19.92
2017-03-21T01:07:58.528Z,19.96
2017-03-21T01:08:39.099Z,19.95
2017-03-21T01:09:19.678Z,19.91
2017-03-21T01:10:00.259Z,19.94
2017-03-21T01:10:40.833Z,19.88
2017-03-21T01:11:21.396Z,19.94
2017-03-21T01:12:01.969Z,20.03
2017-03-21T01:12:42.553Z,19.87
2017-03-21T01:14:19.918Z,20.03
2017-03-21T01:15:00.490Z,19.96
2017-03-21T01:15:41.069Z,19.91
2017-03-21T01:16:21.653Z,19.99
2017-03-21T01:17:02.231Z,19.92
2017-03-21T01:17:42.815Z,19.92
2017-03-21T01:18:23.392Z,19.99
2017-03-21T01:19:03.972Z,19.98
2017-03-21T01:19:44.553Z,19.91
2017-03-21T01:20:25.136Z,19.94
2017-03-21T01:21:05.706Z,20.02
2017-03-21T01:21:46.294Z,19.98
2017-03-21T01:22:26.865Z,19.99
2017-03-21T01:23:07.453Z,19.94
2017-03-21T01:23:48.029Z,19.96
2017-03-21T01:24:28.611Z,19.95
2017-03-21T01:25:09.200Z,20.01
2017-03-21T01:25:49.756Z,19.99
2017-03-21T01:26:30.340Z,19.94
2017-03-21T01:27:10.925Z,19.95
2017-03-21T01:27:51.509Z,19.92
2017-03-21T01:28:32.076Z,19.96
2017-03-21T01:29:12.649Z,20.01
2017-03-21T01:29:53.228Z,20.03
2017-03-21T01:30:33.812Z,19.98
2017-03-21T01:31:14.398Z,20.01
2017-03-21T01:31:54.984Z,19.95
2017-03-21T01:32:35.572Z,19.92
2017-03-21T01:33:16.149Z,19.96
2017-03-21T01:33:56.737Z,19.95
2017-03-21T01:34:37.303Z,19.98
2017-03-21T01:35:17.882Z,19.88
2017-03-21T01:36:55.231Z,19.98
2017-03-21T01:37:35.815Z,19.87
2017-03-21T01:38:16.396Z,19.95
2017-03-21T01:38:56.986Z,20.02
2017-03-21T01:39:37.566Z,19.96
2017-03-21T01:40:18.152Z,19.92
2017-03-21T01:40:58.727Z,19.96
2017-03-21T01:41:39.315Z,19.86
2017-03-21T01:42:19.894Z,20.01
2017-03-21T01:43:00.479Z,19.88
2017-03-21T01:43:41.066Z,19.94
2017-03-21T01:44:21.647Z,19.94
2017-03-21T01:45:02.226Z,19.99
2017-03-21T01:45:42.806Z,19.99
2017-03-21T01:46:23.392Z,19.92
2017-03-21T01:47:03.969Z,19.91
2017-03-21T01:47:44.544Z,19.91
2017-03-21T01:48:25.127Z,19.99
2017-03-21T01:49:05.703Z,19.96
2017-03-21T01:49:46.289Z,19.98
2017-03-21T01:50:26.871Z,19.98
2017-03-21T01:51:07.448Z,19.92
2017-03-21T01:51:48.031Z,19.86
2017-03-21T01:52:28.618Z,19.91
2017-03-21T01:53:09.198Z,19.95
2017-03-21T01:53:49.784Z,19.91
2017-03-21T01:54:30.366Z,19.95
2017-03-21T01:55:10.951Z,19.95
2017-03-21T01:55:51.533Z,19.99
2017-03-21T01:56:32.117Z,19.95
2017-03-21T01:57:12.697Z,19.98
2017-03-21T01:57:53.276Z,19.95
2017-03-21T01:58:33.860Z,19.88
2017-03-21T01:59:14.448Z,19.92
2017-03-21T01:59:55.035Z,19.95
2017-03-21T02:00:35.611Z,19.96
2017-03-21T02:01:16.184Z,20.03
2017-03-21T02:03:13.908Z,20.03
2017-03-21T02:03:54.492Z,19.95
2017-03-21T02:04:35.072Z,20.03
2017-03-21T02:05:15.657Z,19.98
2017-03-21T02:05:56.237Z,20.01
2017-03-21T02:06:36.813Z,19.91
2017-03-21T02:07:17.389Z,20.02
2017-03-21T02:07:57.965Z,20.05
2017-03-21T02:08:38.543Z,20.02
2017-03-21T02:09:19.127Z,20.02
2017-03-21T02:09:59.711Z,20.03
2017-03-21T02:10:40.303Z,20.08
2017-03-21T02:12:32.920Z,20.03
2017-03-21T02:13:13.504Z,20.02
2017-03-21T02:13:54.077Z,20.06
2017-03-21T02:14:34.654Z,19.99
2017-03-21T02:15:15.237Z,20.03
2017-03-21T02:15:55.813Z,20.05
2017-03-21T02:16:36.389Z,19.98
2017-03-21T02:17:16.968Z,20.02
2017-03-21T02:17:57.528Z,20.06
2017-03-21T02:18:38.122Z,19.96
2017-03-21T02:19:18.692Z,20.01
2017-03-21T02:19:59.271Z,20.01
2017-03-21T02:20:39.835Z,20.02
2017-03-21T02:21:20.418Z,20.1
2017-03-21T02:22:00.993Z,19.99
2017-03-21T02:22:41.579Z,19.91
2017-03-21T02:23:22.163Z,20.02
2017-03-21T02:24:02.724Z,20.01
2017-03-21T02:24:43.314Z,19.95
2017-03-21T02:25:23.892Z,20.02
2017-03-21T02:26:04.477Z,19.95
2017-03-21T02:26:45.056Z,19.91
2017-03-21T02:27:25.637Z,19.99
2017-03-21T02:28:06.224Z,20.03
2017-03-21T02:28:46.801Z,19.95
2017-03-21T02:29:27.390Z,20.02
2017-03-21T02:30:07.962Z,20.02
2017-03-21T02:30:51.207Z,20.03
2017-03-21T02:31:30.918Z,20.03
2017-03-21T02:32:11.498Z,19.98
2017-03-21T02:32:52.064Z,19.99
2017-03-21T02:33:32.652Z,20.01
2017-03-21T02:34:13.226Z,20.02
2017-03-21T02:34:53.811Z,20.02
2017-03-21T02:35:35.228Z,19.99
2017-03-21T02:36:17.219Z,20.06
2017-03-21T02:36:56.817Z,20.02
2017-03-21T02:37:38.269Z,20.05
2017-03-21T02:38:18.854Z,20.03
2017-03-21T02:40:06.364Z,20.01
2017-03-21T02:40:46.950Z,20.05
2017-03-21T02:41:27.524Z,20.05
2017-03-21T02:42:08.092Z,20.01
2017-03-21T02:42:48.673Z,20.08
2017-03-21T02:43:29.257Z,20.05
2017-03-21T02:44:09.829Z,19.99
2017-03-21T02:44:50.403Z,20.05
2017-03-21T02:45:31.300Z,20.06
2017-03-21T02:46:11.890Z,20.06
2017-03-21T02:46:52.464Z,20.06
2017-03-21T02:47:33.039Z,20.03
2017-03-21T02:48:13.612Z,20.11
2017-03-21T02:48:54.197Z,20.02
2017-03-21T02:49:34.787Z,20.06
2017-03-21T02:50:15.368Z,20.03
2017-03-21T02:50:55.946Z,20.16
2017-03-21T02:51:36.530Z,20.05
2017-03-21T02:52:18.640Z,20.02
2017-03-21T02:52:58.025Z,20.01
2017-03-21T02:53:38.605Z,20.14
2017-03-21T02:54:19.183Z,20.01
2017-03-21T02:54:59.778Z,20.02
2017-03-21T02:55:40.331Z,20.02
2017-03-21T02:56:20.920Z,20.11
2017-03-21T02:57:01.510Z,19.99
2017-03-21T02:57:42.090Z,20.05
2017-03-21T02:58:22.674Z,20.03
2017-03-21T03:00:00.037Z,20.01
2017-03-21T03:00:40.623Z,20.17
2017-03-21T03:01:21.210Z,20.02
2017-03-21T03:02:01.787Z,20.01
2017-03-21T03:02:42.361Z,20.02
2017-03-21T03:03:22.936Z,20.11
2017-03-21T03:04:03.525Z,20.02
2017-03-21T03:04:44.108Z,20.18
2017-03-21T03:05:24.693Z,20.17
2017-03-21T03:06:05.273Z,20.01
2017-03-21T03:06:45.860Z,20.13
2017-03-21T03:07:26.442Z,20.06
2017-03-21T03:08:07.023Z,20.02
2017-03-21T03:08:47.596Z,20.02
2017-03-21T03:09:28.181Z,20.11
2017-03-21T03:10:08.766Z,20.01
2017-03-21T03:10:49.341Z,20.08
2017-03-21T03:11:29.928Z,20.11
2017-03-21T03:12:10.494Z,20.11
2017-03-21T03:12:51.068Z,20.16
2017-03-21T03:13:31.646Z,20.11
2017-03-21T03:14:12.226Z,20.11
2017-03-21T03:14:52.805Z,20.02
2017-03-21T03:15:33.391Z,20.13
2017-03-21T03:16:13.965Z,20.06
2017-03-21T03:16:54.555Z,20.1
2017-03-21T03:17:35.141Z,20.1
2017-03-21T03:18:15.722Z,20.03
2017-03-21T03:18:56.306Z,19.99
2017-03-21T03:19:36.881Z,20.13
2017-03-21T03:20:17.460Z,19.99
2017-03-21T03:20:58.043Z,20.05
2017-03-21T03:21:38.622Z,20.02
2017-03-21T03:22:19.206Z,20.01
2017-03-21T03:22:59.787Z,19.99
2017-03-21T03:23:40.365Z,20.03
2017-03-21T03:24:20.956Z,20.11
2017-03-21T03:25:01.532Z,20.08
2017-03-21T03:25:42.119Z,20.05
2017-03-21T03:26:22.705Z,20.01
2017-03-21T03:27:03.285Z,19.96
2017-03-21T03:27:43.880Z,20.06
2017-03-21T03:28:24.445Z,20.03
2017-03-21T03:29:05.030Z,20.05
2017-03-21T03:29:45.599Z,20.06
2017-03-21T03:30:26.175Z,20.01
2017-03-21T03:31:06.758Z,20.01
2017-03-21T03:31:47.338Z,19.99
2017-03-21T03:32:27.919Z,20.01
2017-03-21T03:33:08.517Z,20.01
2017-03-21T03:33:49.093Z,20.06
2017-03-21T03:34:29.673Z,20.02
2017-03-21T03:35:10.252Z,20.08
2017-03-21T03:35:50.833Z,20.11
2017-03-21T03:36:31.404Z,20.03
2017-03-21T03:37:11.989Z,20.08
2017-03-21T03:37:52.566Z,20.1
2017-03-21T03:38:33.150Z,20.01
2017-03-21T03:39:13.726Z,20.11
2017-03-21T03:39:54.310Z,20.05
2017-03-21T03:40:34.892Z,20.1
2017-03-21T03:41:15.461Z,20.13
2017-03-21T03:41:56.050Z,19.96
2017-03-21T03:42:36.632Z,20.06
2017-03-21T03:43:17.216Z,20.05
2017-03-21T03:43:57.798Z,20.08
2017-03-21T03:44:38.383Z,20.11
2017-03-21T03:45:18.950Z,20.05
2017-03-21T03:45:59.540Z,20.06
2017-03-21T03:46:40.120Z,20.01
2017-03-21T03:47:20.715Z,20.01
2017-03-21T03:48:58.059Z,20.03
2017-03-21T03:49:38.640Z,19.99
2017-03-21T03:50:19.206Z,20.11
2017-03-21T03:50:59.786Z,19.99
2017-03-21T03:51:40.372Z,20.06
2017-03-21T03:52:20.944Z,20.05
2017-03-21T03:53:01.525Z,20.01
2017-03-21T03:53:42.141Z,20.06
2017-03-21T03:54:22.681Z,20.02
2017-03-21T03:55:03.254Z,20.08
2017-03-21T03:55:43.834Z,20.16
2017-03-21T03:56:24.511Z,20.01
2017-03-21T03:57:05.009Z,20.11
2017-03-21T03:57:45.581Z,19.98
2017-03-21T03:58:26.163Z,20.05
2017-03-21T03:59:06.744Z,20.02
2017-03-21T03:59:47.324Z,19.99
2017-03-21T04:00:27.903Z,20.01
2017-03-21T04:01:08.490Z,20.01
2017-03-21T04:01:49.067Z,20.02
2017-03-21T04:02:29.650Z,20.11
2017-03-21T04:03:10.226Z,20.02
2017-03-21T04:03:50.809Z,20.02
2017-03-21T04:04:31.386Z,20.03
2017-03-21T04:05:11.970Z,20.14
2017-03-21T04:05:52.555Z,20.02
2017-03-21T04:07:40.067Z,20.03
2017-03-21T04:08:20.649Z,20.1
2017-03-21T04:09:01.258Z,20.08
2017-03-21T04:09:41.808Z,20.1
2017-03-21T04:10:22.388Z,20.02
2017-03-21T04:11:02.966Z,20.14
2017-03-21T04:11:43.552Z,19.99
2017-03-21T04:12:24.138Z,20.06
2017-03-21T04:13:04.714Z,20.08
2017-03-21T04:13:45.299Z,20.05
2017-03-21T04:14:25.882Z,20.05
2017-03-21T04:15:06.456Z,20.14
2017-03-21T04:15:47.038Z,20.13
2017-03-21T04:16:27.620Z,20.05
2017-03-21T04:17:08.320Z,20.1
2017-03-21T04:17:49.177Z,19.96
2017-03-21T04:18:29.773Z,20.1
2017-03-21T04:19:10.364Z,20.06
2017-03-21T04:19:50.944Z,20.03
2017-03-21T04:21:48.912Z,20.05
2017-03-21T04:22:29.476Z,20.14
2017-03-21T04:23:10.174Z,20.03
2017-03-21T04:23:51.151Z,20.01
2017-03-21T04:24:31.963Z,20.1
2017-03-21T04:25:12.549Z,20.01
2017-03-21T04:25:53.227Z,20.02
2017-03-21T04:26:34.005Z,20.02
2017-03-21T04:27:14.839Z,20.11
2017-03-21T04:27:55.815Z,20.01
2017-03-21T04:28:36.550Z,20.02
2017-03-21T04:29:17.185Z,20.06
2017-03-21T04:29:57.903Z,20.03
2017-03-21T04:30:38.815Z,20.06
2017-03-21T04:31:19.398Z,20.01
2017-03-21T04:31:59.993Z,20.01
2017-03-21T04:32:40.834Z,20.06
2017-03-21T04:33:21.544Z,20.08
2017-03-21T04:34:02.247Z,20.01
2017-03-21T04:34:43.332Z,20.06
2017-03-21T04:35:24.308Z,20.06
2017-03-21T04:36:05.283Z,20.03
2017-03-21T04:36:45.888Z,20.03
2017-03-21T04:37:26.684Z,20.08
2017-03-21T04:38:07.500Z,20.14
2017-03-21T04:38:48.241Z,20.05
2017-03-21T04:39:29.191Z,20.08
2017-03-21T04:40:09.988Z,20.08
2017-03-21T04:40:50.557Z,20.05
2017-03-21T04:41:31.392Z,20.11
2017-03-21T04:42:12.202Z,20.11
2017-03-21T04:42:52.911Z,20.13
2017-03-21T04:43:33.529Z,20.06
2017-03-21T04:44:14.068Z,20.13
2017-03-21T04:44:54.638Z,20.13
2017-03-21T04:45:35.225Z,20.08
2017-03-21T04:46:15.804Z,20.11
2017-03-21T04:46:56.380Z,20.13
2017-03-21T04:47:36.956Z,20.03
2017-03-21T04:48:17.538Z,20.05
2017-03-21T04:48:58.115Z,20.08
2017-03-21T04:49:38.697Z,19.99
2017-03-21T04:50:19.279Z,19.88
2017-03-21T04:50:59.856Z,19.78
2017-03-21T04:51:40.433Z,19.8
2017-03-21T04:53:33.041Z,19.63
2017-03-21T04:54:13.616Z,19.55
2017-03-21T04:54:54.202Z,19.37
2017-03-21T04:55:34.779Z,19.46
2017-03-21T04:56:15.346Z,19.32
2017-03-21T04:56:55.926Z,19.26
2017-03-21T04:57:36.503Z,19.13
2017-03-21T04:58:17.080Z,19.19
2017-03-21T04:58:57.661Z,19
2017-03-21T04:59:38.238Z,19.06
2017-03-21T05:00:18.818Z,18.99
2017-03-21T05:00:59.391Z,18.88
2017-03-21T05:02:52.012Z,18.72
2017-03-21T05:03:32.576Z,18.62
2017-03-21T05:04:13.152Z,18.52
2017-03-21T05:04:53.730Z,18.42
2017-03-21T05:05:34.315Z,18.48
2017-03-21T05:06:14.889Z,18.32
2017-03-21T05:06:55.462Z,18.36
2017-03-21T05:07:36.048Z,18.32
2017-03-21T05:08:16.613Z,18.27
2017-03-21T05:08:57.188Z,18.14
2017-03-21T05:09:37.776Z,18.11
2017-03-21T05:10:18.347Z,18.08
2017-03-21T05:10:58.931Z,18.11
2017-03-21T05:11:39.505Z,18.03
2017-03-21T05:12:20.082Z,17.99
2017-03-21T05:13:00.655Z,17.95
2017-03-21T05:13:41.233Z,17.86
2017-03-21T05:14:21.805Z,17.86
2017-03-21T05:15:02.364Z,17.87
2017-03-21T05:15:42.944Z,17.84
2017-03-21T05:16:23.525Z,17.84
2017-03-21T05:17:04.103Z,17.82
2017-03-21T05:17:44.679Z,17.77
2017-03-21T05:18:25.262Z,17.71
2017-03-21T05:19:05.838Z,17.75
2017-03-21T05:19:46.415Z,17.59
2017-03-21T05:20:26.991Z,17.58
2017-03-21T05:21:07.571Z,17.62
2017-03-21T05:21:48.158Z,17.62
2017-03-21T05:22:28.740Z,17.55
2017-03-21T05:24:06.098Z,17.46
2017-03-21T05:24:46.680Z,17.46
2017-03-21T05:25:27.264Z,17.52
2017-03-21T05:26:07.834Z,17.43
2017-03-21T05:26:48.418Z,17.37
2017-03-21T05:27:29.004Z,17.37
2017-03-21T05:28:09.568Z,17.37
2017-03-21T05:28:50.147Z,17.38
2017-03-21T05:29:30.715Z,17.31
2017-03-21T05:31:08.083Z,17.22
2017-03-21T05:31:48.661Z,17.21
2017-03-21T05:32:29.239Z,17.19
2017-03-21T05:34:42.039Z,17.18
2017-03-21T05:35:22.623Z,17.12
2017-03-21T05:36:03.204Z,17.07
2017-03-21T05:36:43.780Z,17.06
2017-03-21T05:37:39.055Z,17.06
2017-03-21T05:38:19.630Z,17.06
2017-03-21T05:39:00.196Z,17.08
2017-03-21T05:39:40.774Z,17.07
2017-03-21T05:40:21.358Z,17.03
2017-03-21T05:41:01.921Z,17.06
2017-03-21T05:41:42.513Z,17.03
2017-03-21T05:42:23.083Z,16.98
2017-03-21T05:43:03.647Z,16.98
2017-03-21T05:43:44.223Z,16.97
2017-03-21T05:44:24.801Z,16.93
2017-03-21T05:45:05.377Z,17.01
2017-03-21T05:45:45.956Z,16.96
2017-03-21T05:46:26.535Z,16.93
2017-03-21T05:47:07.114Z,16.93
2017-03-21T05:47:47.687Z,16.96
2017-03-21T05:48:28.270Z,16.89
2017-03-21T05:49:08.852Z,16.89
2017-03-21T05:49:49.429Z,16.88
2017-03-21T05:50:30.005Z,16.94
2017-03-21T05:51:10.579Z,16.89
2017-03-21T05:51:51.168Z,16.82
2017-03-21T05:52:31.738Z,16.89
2017-03-21T05:54:09.093Z,16.94
2017-03-21T05:54:49.665Z,16.94
2017-03-21T05:55:30.244Z,16.82
2017-03-21T05:56:10.820Z,16.88
2017-03-21T05:56:51.406Z,16.85
2017-03-21T05:57:31.985Z,16.86
2017-03-21T05:58:12.571Z,16.82
2017-03-21T05:58:53.155Z,16.81
2017-03-21T05:59:33.732Z,16.81
2017-03-21T06:00:14.311Z,16.78
2017-03-21T06:00:54.886Z,16.81
2017-03-21T06:01:35.458Z,16.81
2017-03-21T06:02:16.026Z,16.75
2017-03-21T06:02:56.607Z,16.85
2017-03-21T06:03:37.183Z,16.88
2017-03-21T06:04:17.784Z,16.79
2017-03-21T06:04:58.364Z,16.86
2017-03-21T06:05:38.945Z,16.85
2017-03-21T06:06:19.521Z,16.85
2017-03-21T06:08:12.126Z,16.82
2017-03-21T06:08:52.714Z,16.97
2017-03-21T06:10:40.194Z,16.96
2017-03-21T06:11:20.782Z,16.96
2017-03-21T06:12:01.359Z,16.94
2017-03-21T06:12:41.967Z,16.98
2017-03-21T06:13:22.509Z,17.01
2017-03-21T06:14:03.093Z,17
2017-03-21T06:14:43.670Z,17.07
2017-03-21T06:15:24.249Z,17.01
2017-03-21T06:16:04.831Z,17.03
2017-03-21T06:16:45.412Z,16.98
2017-03-21T06:17:25.991Z,17.07
2017-03-21T06:18:06.569Z,17.08
2017-03-21T06:18:47.149Z,17.08
2017-03-21T06:19:27.729Z,17.08
2017-03-21T06:20:08.298Z,17.03
2017-03-21T06:22:21.124Z,17.21
2017-03-21T06:23:01.701Z,17.25
2017-03-21T06:23:42.289Z,17.36
2017-03-21T06:24:22.866Z,17.31
2017-03-21T06:25:03.452Z,17.34
2017-03-21T06:25:44.031Z,17.43
2017-03-21T06:26:24.598Z,17.54
2017-03-21T06:27:05.167Z,17.56
2017-03-21T06:27:45.754Z,17.49
2017-03-21T06:28:26.341Z,17.56
2017-03-21T06:29:06.915Z,17.62
2017-03-21T06:31:04.628Z,17.55
2017-03-21T06:31:45.196Z,17.58
2017-03-21T06:32:25.779Z,17.68
2017-03-21T06:33:06.356Z,17.84
2017-03-21T06:33:46.937Z,17.78
2017-03-21T06:34:27.515Z,17.78
2017-03-21T06:35:08.081Z,17.84
2017-03-21T06:35:48.659Z,17.87
2017-03-21T06:36:29.238Z,17.81
2017-03-21T06:37:09.811Z,17.87
2017-03-21T06:37:50.391Z,17.89
2017-03-21T06:38:30.959Z,17.81
2017-03-21T06:39:11.541Z,17.92
2017-03-21T06:39:52.114Z,17.92
2017-03-21T06:40:32.695Z,17.95
2017-03-21T06:41:13.276Z,17.99
2017-03-21T06:41:53.856Z,18.1
2017-03-21T06:42:34.433Z,18.17
2017-03-21T06:43:15.020Z,18.26
2017-03-21T06:43:55.601Z,18.32
2017-03-21T06:44:36.179Z,18.32
2017-03-21T06:45:16.757Z,18.42
2017-03-21T06:45:57.334Z,18.54
2017-03-21T06:48:10.163Z,18.67
2017-03-21T06:48:50.738Z,18.62
2017-03-21T06:49:31.315Z,18.75
2017-03-21T06:50:11.885Z,18.81
2017-03-21T06:50:52.455Z,18.85
2017-03-21T06:51:33.034Z,19
2017-03-21T06:52:13.613Z,19.02
2017-03-21T06:52:54.187Z,19.07
2017-03-21T06:53:34.774Z,19.22
2017-03-21T06:54:15.355Z,19.48
2017-03-21T06:54:55.933Z,19.47
2017-03-21T06:55:36.512Z,19.44
2017-03-21T06:56:17.100Z,19.54
2017-03-21T06:56:57.669Z,19.54
2017-03-21T06:57:38.241Z,19.51
2017-03-21T06:58:18.826Z,19.63
2017-03-21T06:58:59.397Z,19.61
2017-03-21T06:59:39.959Z,19.63
2017-03-21T07:00:20.538Z,19.73
2017-03-21T07:01:01.122Z,19.69
2017-03-21T07:01:41.702Z,19.76
2017-03-21T07:02:22.283Z,19.69
2017-03-21T07:03:02.864Z,19.61
2017-03-21T07:03:43.442Z,19.63
2017-03-21T07:05:41.160Z,19.59
2017-03-21T07:06:21.736Z,19.47
2017-03-21T07:07:02.305Z,19.56
2017-03-21T07:07:42.900Z,19.51
2017-03-21T07:08:23.466Z,19.59
2017-03-21T07:09:04.057Z,19.65
2017-03-21T07:09:44.619Z,19.69
2017-03-21T07:10:25.204Z,19.78
2017-03-21T07:11:05.777Z,19.76
2017-03-21T07:11:46.343Z,19.78
2017-03-21T07:12:26.936Z,19.91
2017-03-21T07:13:07.493Z,19.94
2017-03-21T07:13:48.068Z,20.1
2017-03-21T07:14:28.647Z,20.03
2017-03-21T07:15:09.217Z,20.13
2017-03-21T07:15:49.801Z,20.29
2017-03-21T07:16:30.368Z,20.41
2017-03-21T07:17:10.937Z,20.92
2017-03-21T07:17:51.491Z,21.13
2017-03-21T07:18:32.070Z,21.65
2017-03-21T07:19:12.641Z,22.25
2017-03-21T07:19:53.221Z,22.86
2017-03-21T07:20:33.803Z,23.48
2017-03-21T07:21:14.376Z,24.16
2017-03-21T07:21:54.944Z,24.06
2017-03-21T07:22:35.525Z,24.09
2017-03-21T07:23:16.100Z,24.2
2017-03-21T07:23:56.679Z,24.84
2017-03-21T07:24:37.254Z,24.93
2017-03-21T07:25:17.828Z,24.84
2017-03-21T07:25:58.406Z,25.09
2017-03-21T07:26:38.995Z,24.99
2017-03-21T07:27:19.584Z,25
2017-03-21T07:28:00.155Z,24.83
2017-03-21T07:28:40.740Z,24.73
2017-03-21T07:29:21.324Z,24.67
2017-03-21T07:30:01.893Z,24.73
2017-03-21T07:30:42.492Z,24.68
2017-03-21T07:31:23.061Z,24.68
2017-03-21T07:32:03.645Z,24.73
2017-03-21T07:32:44.228Z,24.87
2017-03-21T07:33:24.801Z,24.93
2017-03-21T07:34:05.375Z,25
2017-03-21T07:34:45.942Z,25.47
2017-03-21T07:35:26.522Z,25.61
2017-03-21T07:36:07.095Z,25.95
2017-03-21T07:36:47.677Z,26.2
2017-03-21T07:37:28.255Z,26.25
2017-03-21T07:38:08.836Z,26.3
2017-03-21T07:38:49.421Z,26.32
2017-03-21T07:39:29.985Z,26.29
2017-03-21T07:40:10.572Z,26.28
2017-03-21T07:40:51.138Z,26.43
2017-03-21T07:41:31.721Z,26.76
2017-03-21T07:42:12.299Z,26.65
2017-03-21T07:42:52.870Z,26.82
2017-03-21T07:43:33.466Z,26.75
2017-03-21T07:45:31.190Z,26.95
2017-03-21T07:46:11.773Z,27.1
2017-03-21T07:46:52.342Z,27.49
2017-03-21T07:47:32.913Z,27.79
2017-03-21T07:48:13.503Z,28.21
2017-03-21T07:50:11.209Z,28.41
2017-03-21T07:51:06.463Z,28.71
2017-03-21T07:51:47.038Z,28.61
2017-03-21T07:52:27.635Z,28.52
2017-03-21T07:53:08.217Z,28.55
2017-03-21T07:53:48.788Z,28.61
2017-03-21T07:54:29.368Z,28.85
2017-03-21T07:55:09.951Z,28.95
2017-03-21T07:55:50.531Z,28.66
2017-03-21T07:56:31.810Z,28.74
2017-03-21T07:57:12.398Z,28.59
2017-03-21T07:57:52.984Z,28.51
2017-03-21T07:58:33.571Z,28.4
2017-03-21T07:59:14.129Z,28.15
2017-03-21T07:59:54.709Z,27.97
2017-03-21T08:00:35.291Z,28.02
2017-03-21T08:01:15.863Z,27.85
2017-03-21T08:01:56.439Z,27.81
2017-03-21T08:02:37.024Z,27.87
2017-03-21T08:03:17.609Z,28.41
2017-03-21T08:03:58.186Z,28.11
2017-03-21T08:04:38.772Z,28.15
2017-03-21T08:05:19.355Z,28.33
2017-03-21T08:05:59.937Z,28.17
2017-03-21T08:06:40.521Z,28.03
2017-03-21T08:07:21.111Z,27.84
2017-03-21T08:08:01.680Z,27.62
2017-03-21T08:08:42.276Z,27.51
2017-03-21T08:09:22.850Z,27.37
2017-03-21T08:10:03.430Z,27.21
2017-03-21T08:10:44.008Z,27.24
2017-03-21T08:11:24.588Z,27.57
2017-03-21T08:12:05.173Z,27.9
2017-03-21T08:12:45.754Z,28.22
2017-03-21T08:13:26.342Z,28.17
2017-03-21T08:14:06.919Z,28.29
2017-03-21T08:14:47.500Z,28.37
2017-03-21T08:15:28.078Z,28.48
2017-03-21T08:16:08.663Z,28.71
2017-03-21T08:17:56.171Z,28.64
2017-03-21T08:18:36.746Z,28.9
2017-03-21T08:19:17.353Z,29.05
2017-03-21T08:19:57.919Z,29.18
2017-03-21T08:20:38.500Z,29.36
2017-03-21T08:21:19.076Z,29.11
2017-03-21T08:21:59.655Z,29.16
2017-03-21T08:22:40.234Z,29.28
2017-03-21T08:23:20.814Z,29.48
2017-03-21T08:24:01.390Z,29.8
2017-03-21T08:24:41.967Z,30.6
2017-03-21T08:25:22.546Z,31.02
2017-03-21T08:26:03.123Z,31.44
2017-03-21T08:26:43.704Z,31.69
2017-03-21T08:27:24.284Z,31.95
2017-03-21T08:28:04.868Z,32.26
2017-03-21T08:28:45.443Z,32.35
2017-03-21T08:29:26.027Z,32.5
2017-03-21T08:30:06.605Z,32.93
2017-03-21T08:30:47.190Z,33.32
2017-03-21T08:31:27.779Z,33.56
2017-03-21T08:32:08.358Z,33.82
2017-03-21T08:32:48.939Z,34.13
2017-03-21T08:33:29.523Z,34.39
2017-03-21T08:34:10.108Z,34.58
2017-03-21T08:34:50.691Z,34.88
2017-03-21T08:35:31.266Z,35.14
2017-03-21T08:36:11.849Z,35.31
2017-03-21T08:36:52.438Z,35.4
2017-03-21T08:37:33.022Z,35.62
2017-03-21T08:38:13.607Z,35.71
2017-03-21T08:38:54.192Z,35.8
2017-03-21T08:39:34.773Z,35.82
2017-03-21T08:40:15.357Z,35.97
2017-03-21T08:40:55.941Z,36.16
2017-03-21T08:41:36.526Z,36.16
2017-03-21T08:42:17.104Z,35.84
2017-03-21T08:42:57.683Z,35.7
2017-03-21T08:43:38.265Z,35.45
2017-03-21T08:44:18.823Z,35.47
2017-03-21T08:44:59.408Z,35.1
2017-03-21T08:45:39.992Z,34.75
2017-03-21T08:46:20.564Z,34.24
2017-03-21T08:47:01.133Z,34.31
2017-03-21T08:47:41.713Z,33.86
2017-03-21T08:48:22.304Z,33.79
2017-03-21T08:49:02.892Z,33.71
2017-03-21T08:49:43.473Z,33.56
2017-03-21T08:50:24.065Z,33.59
2017-03-21T08:51:04.631Z,33.73
2017-03-21T08:51:45.204Z,33.81
2017-03-21T08:52:25.786Z,33.95
2017-03-21T08:53:06.370Z,33.97
2017-03-21T08:53:46.945Z,33.44
2017-03-21T08:54:27.529Z,33.56
2017-03-21T08:55:08.100Z,33.56
2017-03-21T08:55:48.678Z,33.39
2017-03-21T08:56:29.260Z,33.22
2017-03-21T08:57:09.848Z,32.93
2017-03-21T08:57:50.421Z,32.56
2017-03-21T08:58:31.006Z,32.01
2017-03-21T08:59:11.587Z,31.61
2017-03-21T08:59:52.171Z,31.25
2017-03-21T09:00:32.749Z,30.8
2017-03-21T09:01:13.325Z,30.46
2017-03-21T09:01:53.894Z,30.17
2017-03-21T09:02:34.470Z,29.73
2017-03-21T09:03:15.048Z,29.48
2017-03-21T09:03:55.621Z,29.16
2017-03-21T09:04:36.213Z,28.83
2017-03-21T09:05:16.786Z,28.51
2017-03-21T09:05:57.373Z,28.3
2017-03-21T09:06:37.952Z,27.93
2017-03-21T09:07:18.529Z,27.69
2017-03-21T09:07:59.100Z,27.5
2017-03-21T09:08:39.672Z,27.22
2017-03-21T09:09:20.253Z,26.99
2017-03-21T09:10:00.845Z,26.94
2017-03-21T09:10:41.413Z,26.81
2017-03-21T09:11:21.994Z,26.6
2017-03-21T09:12:02.583Z,26.44
2017-03-21T09:12:43.166Z,26.32
2017-03-21T09:13:23.744Z,26.35
2017-03-21T09:14:04.332Z,26.28
2017-03-21T09:14:44.920Z,26.15
2017-03-21T09:15:25.503Z,26.09